Terminal Aerodrome Forecast
Issued by NWS Binghamton, NY

Home | Current Version | Previous Version | Text Only | Print | Product List | Glossary On
Versions: 1 2 3 4 5 6 7 8 9 10 11 12 13 14 15 16 17 18 19 20 21
000
FTUS41 KBGM 291100
TAFBGM
TAF
KBGM 291133Z 2912/3012 29004KT P6SM SCT003 OVC060
      TEMPO 2912/2914 OVC003
     FM291500 30007KT P6SM BKN050
     FM300000 25003KT P6SM FEW050=

USA.gov is the U.S. government's official web portal to all federal, state and local government web resources and services.